createdAt,value
2017-04-21T00:00:25.414Z,1016.31
2017-04-21T00:00:47.304Z,1016.47
2017-04-21T00:01:45.681Z,1016.46
2017-04-21T00:02:07.379Z,1016.52
2017-04-21T00:03:14.790Z,1016.51
2017-04-21T00:03:39.223Z,1016.40
2017-04-21T00:04:05.732Z,1016.52
2017-04-21T00:04:27.551Z,1016.52
2017-04-21T00:04:54.016Z,1016.36
2017-04-21T00:05:18.532Z,1016.46
2017-04-21T00:05:45.025Z,1016.47
2017-04-21T00:06:06.801Z,1016.38
2017-04-21T00:06:33.315Z,1016.46
2017-04-21T00:06:55.002Z,1016.31
2017-04-21T00:07:21.473Z,1016.46
2017-04-21T00:07:43.249Z,1016.64
2017-04-21T00:08:09.741Z,1016.32
2017-04-21T00:08:31.463Z,1016.33
2017-04-21T00:09:33.980Z,1016.35
2017-04-21T00:10:00.467Z,1016.35
2017-04-21T00:10:58.905Z,1016.37
2017-04-21T00:11:25.393Z,1016.31
2017-04-21T00:12:23.827Z,1016.11
2017-04-21T00:12:50.337Z,1016.30
2017-04-21T00:13:43.371Z,1016.32
2017-04-21T00:14:09.862Z,1016.39
2017-04-21T00:14:31.594Z,1016.41
2017-04-21T00:14:53.358Z,1016.29
2017-04-21T00:15:19.851Z,1016.23
2017-04-21T00:15:41.519Z,1016.27
2017-04-21T00:16:03.221Z,1016.31
2017-04-21T00:16:56.233Z,1016.16
2017-04-21T00:17:17.940Z,1016.22
2017-04-21T00:18:10.947Z,1016.10
2017-04-21T00:18:32.660Z,1016.19
2017-04-21T00:18:59.144Z,1016.24
2017-04-21T00:19:20.957Z,1016.31
2017-04-21T00:19:47.436Z,1016.32
2017-04-21T00:20:09.173Z,1016.20
2017-04-21T00:21:02.190Z,1016.12
2017-04-21T00:21:55.262Z,1016.15
2017-04-21T00:22:48.257Z,1016.20
2017-04-21T00:23:41.266Z,1016.31
2017-04-21T00:24:34.295Z,1016.24
2017-04-21T00:25:27.284Z,1016.12
2017-04-21T00:25:53.755Z,1015.95
2017-04-21T00:26:15.540Z,1016.06
2017-04-21T00:26:37.237Z,1016.16
2017-04-21T00:26:58.943Z,1016.29
2017-04-21T00:27:20.736Z,1016.25
2017-04-21T00:27:42.445Z,1016.24
2017-04-21T00:28:04.172Z,1016.13
2017-04-21T00:28:25.885Z,1016.09
2017-04-21T00:28:47.663Z,1016.14
2017-04-21T00:29:14.145Z,1016.31
2017-04-21T00:29:35.852Z,1016.06
2017-04-21T00:30:34.398Z,1016.16
2017-04-21T00:30:56.106Z,1016.07
2017-04-21T00:31:22.592Z,1016.09
2017-04-21T00:31:44.393Z,1016.20
2017-04-21T00:32:37.375Z,1016.16
2017-04-21T00:33:03.891Z,1016.22
2017-04-21T00:33:25.692Z,1016.30
2017-04-21T00:33:52.378Z,1016.13
2017-04-21T00:34:14.077Z,1016.22
2017-04-21T00:34:35.885Z,1016.21
2017-04-21T00:35:02.365Z,1016.34
2017-04-21T00:35:24.091Z,1016.23
2017-04-21T00:35:45.797Z,1016.18
2017-04-21T00:36:12.279Z,1015.97
2017-04-21T00:36:34.059Z,1015.96
2017-04-21T00:36:55.746Z,1016.01
2017-04-21T00:37:22.226Z,1016.05
2017-04-21T00:37:44.011Z,1016.05
2017-04-21T00:38:05.716Z,1016.22
2017-04-21T00:38:32.211Z,1016.18
2017-04-21T00:38:53.990Z,1016.02
2017-04-21T00:39:20.465Z,1016.22
2017-04-21T00:39:42.179Z,1016.00
2017-04-21T00:40:03.970Z,1016.15
2017-04-21T00:40:25.711Z,1016.15
2017-04-21T00:40:47.410Z,1016.10
2017-04-21T00:41:09.128Z,1015.97
2017-04-21T00:42:07.631Z,1016.01
2017-04-21T00:42:29.340Z,1016.11
2017-04-21T00:43:22.574Z,1015.97
2017-04-21T00:43:44.268Z,1016.03
2017-04-21T00:44:10.754Z,1016.04
2017-04-21T00:44:32.537Z,1016.02
2017-04-21T00:44:59.027Z,1016.26
2017-04-21T00:45:20.713Z,1016.07
2017-04-21T00:45:42.438Z,1015.97
2017-04-21T00:46:35.481Z,1016.02
2017-04-21T00:46:57.209Z,1016.16
2017-04-21T00:47:50.254Z,1016.01
2017-04-21T00:48:43.316Z,1015.92
2017-04-21T00:49:41.614Z,1016.03
2017-04-21T00:50:03.406Z,1015.89
2017-04-21T00:50:25.118Z,1015.94
2017-04-21T00:50:51.615Z,1015.94
2017-04-21T00:51:13.335Z,1016.02
2017-04-21T00:51:39.932Z,1015.88
2017-04-21T00:52:01.571Z,1015.94
2017-04-21T00:52:23.289Z,1016.00
2017-04-21T00:53:16.315Z,1015.94
2017-04-21T00:53:42.827Z,1016.00
2017-04-21T00:54:04.515Z,1016.01
2017-04-21T00:54:26.306Z,1016.13
2017-04-21T00:55:56.023Z,1016.03
2017-04-21T00:56:17.783Z,1015.99
2017-04-21T00:56:39.512Z,1015.97
2017-04-21T00:57:01.226Z,1015.93
2017-04-21T00:57:22.969Z,1015.99
2017-04-21T00:57:44.721Z,1016.03
2017-04-21T00:58:06.506Z,1016.05
2017-04-21T00:58:28.360Z,1015.97
2017-04-21T00:58:50.202Z,1016.04
2017-04-21T00:59:11.982Z,1015.86
2017-04-21T00:59:33.781Z,1016.25
2017-04-21T00:59:55.528Z,1016.01
2017-04-21T01:00:17.308Z,1015.95
2017-04-21T01:00:39.036Z,1015.90
2017-04-21T01:01:00.835Z,1016.24
2017-04-21T01:01:22.566Z,1016.12
2017-04-21T01:01:44.318Z,1015.96
2017-04-21T01:02:06.062Z,1015.97
2017-04-21T01:02:27.833Z,1015.89
2017-04-21T01:02:49.582Z,1016.06
2017-04-21T01:03:11.354Z,1016.07
2017-04-21T01:03:33.132Z,1015.92
2017-04-21T01:03:54.906Z,1016.20
2017-04-21T01:04:16.667Z,1016.10
2017-04-21T01:04:38.405Z,1015.83
2017-04-21T01:05:00.160Z,1015.88
2017-04-21T01:05:21.934Z,1015.97
2017-04-21T01:05:43.673Z,1016.00
2017-04-21T01:06:05.444Z,1016.01
2017-04-21T01:06:27.198Z,1016.08
2017-04-21T01:06:49.029Z,1016.12
2017-04-21T01:07:10.818Z,1015.94
2017-04-21T01:07:32.525Z,1015.96
2017-04-21T01:07:54.514Z,1015.96
2017-04-21T01:08:16.255Z,1015.90
2017-04-21T01:08:38.079Z,1015.68
2017-04-21T01:08:59.870Z,1015.87
2017-04-21T01:09:21.623Z,1015.90
2017-04-21T01:09:43.363Z,1015.86
2017-04-21T01:10:05.229Z,1015.80
2017-04-21T01:10:26.977Z,1015.88
2017-04-21T01:10:48.731Z,1015.92
2017-04-21T01:11:10.516Z,1015.88
2017-04-21T01:11:32.261Z,1015.83
2017-04-21T01:11:54.000Z,1015.94
2017-04-21T01:12:20.360Z,1015.86
2017-04-21T01:12:42.186Z,1015.94
2017-04-21T01:13:07.816Z,1015.89
2017-04-21T01:13:29.556Z,1015.82
2017-04-21T01:13:51.310Z,1015.92
2017-04-21T01:14:44.419Z,1015.82
2017-04-21T01:15:07.213Z,1015.86
2017-04-21T01:15:28.955Z,1015.66
2017-04-21T01:15:50.699Z,1015.85
2017-04-21T01:16:12.526Z,1015.80
2017-04-21T01:16:34.278Z,1015.83
2017-04-21T01:16:56.032Z,1015.79
2017-04-21T01:17:17.767Z,1015.92
2017-04-21T01:17:39.507Z,1015.89
2017-04-21T01:18:46.858Z,1015.64
2017-04-21T01:19:08.993Z,1015.59
2017-04-21T01:20:11.625Z,1015.99
2017-04-21T01:20:33.358Z,1015.84
2017-04-21T01:20:55.140Z,1015.75
2017-04-21T01:21:16.876Z,1015.91
2017-04-21T01:21:38.775Z,1015.77
2017-04-21T01:22:00.609Z,1015.61
2017-04-21T01:22:22.337Z,1015.60
2017-04-21T01:22:44.054Z,1015.62
2017-04-21T01:23:05.750Z,1015.75
2017-04-21T01:23:27.472Z,1015.81
2017-04-21T01:23:49.175Z,1015.77
2017-04-21T01:24:10.991Z,1015.83
2017-04-21T01:24:32.765Z,1015.78
2017-04-21T01:24:54.536Z,1015.63
2017-04-21T01:25:16.283Z,1015.76
2017-04-21T01:25:38.035Z,1015.66
2017-04-21T01:25:59.793Z,1015.82
2017-04-21T01:26:21.578Z,1016.04
2017-04-21T01:26:43.378Z,1015.75
2017-04-21T01:27:05.179Z,1015.83
2017-04-21T01:27:26.951Z,1015.73
2017-04-21T01:27:48.686Z,1015.60
2017-04-21T01:28:10.416Z,1015.71
2017-04-21T01:28:32.154Z,1015.81
2017-04-21T01:28:53.915Z,1015.71
2017-04-21T01:29:15.761Z,1015.81
2017-04-21T01:29:37.506Z,1015.86
2017-04-21T01:30:25.750Z,1015.70
2017-04-21T01:30:47.563Z,1015.82
2017-04-21T01:31:09.325Z,1015.80
2017-04-21T01:31:31.107Z,1015.85
2017-04-21T01:31:52.882Z,1015.82
2017-04-21T01:32:14.768Z,1015.72
2017-04-21T01:32:36.628Z,1015.70
2017-04-21T01:32:58.365Z,1015.74
2017-04-21T01:33:20.098Z,1015.64
2017-04-21T01:33:41.844Z,1015.73
2017-04-21T01:34:03.600Z,1015.87
2017-04-21T01:34:25.351Z,1015.81
2017-04-21T01:34:47.104Z,1015.66
2017-04-21T01:35:08.867Z,1015.64
2017-04-21T01:35:30.677Z,1015.75
2017-04-21T01:35:52.421Z,1015.72
2017-04-21T01:36:14.183Z,1015.82
2017-04-21T01:36:35.977Z,1015.54
2017-04-21T01:36:57.748Z,1015.51
2017-04-21T01:37:19.522Z,1015.72
2017-04-21T01:37:41.277Z,1015.77
2017-04-21T01:38:03.023Z,1015.76
2017-04-21T01:38:24.856Z,1015.48
2017-04-21T01:38:46.635Z,1015.56
2017-04-21T01:39:08.376Z,1015.59
2017-04-21T01:39:30.141Z,1015.71
2017-04-21T01:39:51.888Z,1015.54
2017-04-21T01:40:13.628Z,1015.63
2017-04-21T01:40:35.386Z,1015.90
2017-04-21T01:40:57.136Z,1015.71
2017-04-21T01:41:18.919Z,1015.93
2017-04-21T01:41:40.684Z,1015.96
2017-04-21T01:42:02.452Z,1015.77
2017-04-21T01:42:24.261Z,1015.81
2017-04-21T01:42:46.018Z,1015.39
2017-04-21T01:43:07.825Z,1015.61
2017-04-21T01:43:29.563Z,1015.60
2017-04-21T01:43:51.343Z,1015.78
2017-04-21T01:44:13.141Z,1015.82
2017-04-21T01:44:34.940Z,1015.65
2017-04-21T01:45:23.196Z,1015.73
2017-04-21T01:45:44.966Z,1015.62
2017-04-21T01:46:06.756Z,1015.60
2017-04-21T01:46:28.542Z,1015.59
2017-04-21T01:46:50.258Z,1015.49
2017-04-21T01:47:12.006Z,1015.74
2017-04-21T01:47:33.742Z,1015.76
2017-04-21T01:47:55.517Z,1015.69
2017-04-21T01:48:17.252Z,1015.64
2017-04-21T01:48:39.025Z,1015.74
2017-04-21T01:49:00.783Z,1015.58
2017-04-21T01:49:22.523Z,1015.62
2017-04-21T01:49:44.285Z,1015.79
2017-04-21T01:50:06.051Z,1015.69
2017-04-21T01:50:27.805Z,1015.54
2017-04-21T01:50:49.555Z,1015.72
2017-04-21T01:51:11.500Z,1015.97
2017-04-21T01:51:33.240Z,1015.85
2017-04-21T01:51:54.997Z,1015.72
2017-04-21T01:52:16.750Z,1015.62
2017-04-21T01:52:38.490Z,1015.60
2017-04-21T01:54:17.569Z,1015.60
2017-04-21T01:54:39.275Z,1015.70
2017-04-21T01:55:01.969Z,1015.77
2017-04-21T01:55:54.939Z,1015.89
2017-04-21T01:56:16.652Z,1015.75
2017-04-21T01:56:38.395Z,1015.82
2017-04-21T01:57:00.164Z,1015.82
2017-04-21T01:57:21.908Z,1015.46
2017-04-21T01:57:43.601Z,1015.52
2017-04-21T01:58:05.353Z,1015.71
2017-04-21T01:58:31.886Z,1015.86
2017-04-21T01:58:53.614Z,1015.69
2017-04-21T01:59:15.308Z,1015.63
2017-04-21T01:59:37.219Z,1015.62
2017-04-21T01:59:58.953Z,1015.69
2017-04-21T02:00:20.657Z,1015.77
2017-04-21T02:00:42.403Z,1015.61
2017-04-21T02:01:04.361Z,1015.65
2017-04-21T02:01:26.110Z,1015.63
2017-04-21T02:01:47.848Z,1015.59
2017-04-21T02:02:09.621Z,1015.60
2017-04-21T02:02:31.374Z,1015.60
2017-04-21T02:02:57.898Z,1015.75
2017-04-21T02:03:24.415Z,1015.79
2017-04-21T02:03:46.318Z,1015.73
2017-04-21T02:04:12.887Z,1015.71
2017-04-21T02:04:34.739Z,1015.66
2017-04-21T02:04:56.464Z,1015.56
2017-04-21T02:05:18.168Z,1015.74
2017-04-21T02:05:39.907Z,1015.64
2017-04-21T02:06:01.654Z,1015.63
2017-04-21T02:06:23.383Z,1015.58
2017-04-21T02:06:45.342Z,1015.56
2017-04-21T02:07:11.826Z,1015.84
2017-04-21T02:07:33.649Z,1015.78
2017-04-21T02:07:55.467Z,1015.91
2017-04-21T02:08:21.975Z,1015.76
2017-04-21T02:08:43.753Z,1015.59
2017-04-21T02:09:05.467Z,1015.67
2017-04-21T02:09:31.948Z,1015.88
2017-04-21T02:09:53.731Z,1015.67
2017-04-21T02:10:15.418Z,1015.54
2017-04-21T02:10:37.148Z,1015.55
2017-04-21T02:10:58.886Z,1015.68
2017-04-21T02:11:20.698Z,1015.63
2017-04-21T02:11:47.190Z,1015.60
2017-04-21T02:12:08.890Z,1015.68
2017-04-21T02:12:30.607Z,1015.60
2017-04-21T02:13:23.650Z,1015.40
2017-04-21T02:14:16.710Z,1015.72
2017-04-21T02:14:43.182Z,1015.61
2017-04-21T02:15:04.890Z,1015.45
2017-04-21T02:15:26.783Z,1015.66
2017-04-21T02:16:19.828Z,1015.43
2017-04-21T02:16:51.091Z,1015.52
2017-04-21T02:17:12.872Z,1015.73
2017-04-21T02:18:05.824Z,1015.42
2017-04-21T02:18:27.651Z,1015.39
2017-04-21T02:18:54.135Z,1015.47
2017-04-21T02:19:15.820Z,1015.54
2017-04-21T02:19:42.301Z,1015.85
2017-04-21T02:20:04.081Z,1015.66
2017-04-21T02:20:30.575Z,1015.53
2017-04-21T02:20:52.267Z,1015.67
2017-04-21T02:21:14.094Z,1015.66
2017-04-21T02:22:16.597Z,1015.63
2017-04-21T02:22:43.272Z,1015.74
2017-04-21T02:23:09.829Z,1015.68
2017-04-21T02:23:31.554Z,1015.67
2017-04-21T02:24:24.581Z,1015.61
2017-04-21T02:24:51.064Z,1015.67
2017-04-21T02:25:12.767Z,1015.54
2017-04-21T02:26:15.266Z,1015.57
2017-04-21T02:26:36.972Z,1015.70
2017-04-21T02:26:58.678Z,1015.57
2017-04-21T02:27:51.721Z,1015.61
2017-04-21T02:28:18.202Z,1015.69
2017-04-21T02:28:39.937Z,1015.48
2017-04-21T02:29:33.009Z,1015.67
2017-04-21T02:29:54.712Z,1015.71
2017-04-21T02:30:16.417Z,1015.55
2017-04-21T02:30:38.407Z,1015.59
2017-04-21T02:31:00.113Z,1015.74
2017-04-21T02:31:21.815Z,1015.58
2017-04-21T02:31:43.508Z,1015.51
2017-04-21T02:32:09.982Z,1015.53
2017-04-21T02:32:31.771Z,1015.63
2017-04-21T02:32:53.474Z,1015.55
2017-04-21T02:33:15.190Z,1015.55
2017-04-21T02:33:36.975Z,1015.79
2017-04-21T02:33:58.679Z,1015.66
2017-04-21T02:34:25.184Z,1015.63
2017-04-21T02:34:46.884Z,1015.50
2017-04-21T02:35:08.671Z,1015.67
2017-04-21T02:35:35.164Z,1015.50
2017-04-21T02:35:56.882Z,1015.68
2017-04-21T02:36:49.921Z,1015.42
2017-04-21T02:37:11.635Z,1015.51
2017-04-21T02:37:38.113Z,1015.64
2017-04-21T02:37:59.909Z,1015.59
2017-04-21T02:38:21.607Z,1015.40
2017-04-21T02:38:48.086Z,1015.50
2017-04-21T02:39:09.789Z,1015.50
2017-04-21T02:39:31.588Z,1015.50
2017-04-21T02:40:24.556Z,1015.73
2017-04-21T02:40:46.359Z,1015.49
2017-04-21T02:41:39.310Z,1015.56
2017-04-21T02:42:01.118Z,1015.74
2017-04-21T02:42:27.607Z,1015.63
2017-04-21T02:42:49.311Z,1015.68
2017-04-21T02:43:15.793Z,1015.59
2017-04-21T02:43:37.575Z,1015.53
2017-04-21T02:43:59.316Z,1015.45
2017-04-21T02:44:21.001Z,1015.62
2017-04-21T02:44:42.792Z,1015.60
2017-04-21T02:45:04.508Z,1015.38
2017-04-21T02:45:31.006Z,1015.59
2017-04-21T02:45:52.806Z,1015.67
2017-04-21T02:46:14.509Z,1015.61
2017-04-21T02:47:12.893Z,1015.45
2017-04-21T02:47:34.606Z,1015.50
2017-04-21T02:48:27.645Z,1015.58
2017-04-21T02:48:54.147Z,1015.53
2017-04-21T02:49:15.873Z,1015.53
2017-04-21T02:49:42.358Z,1015.42
2017-04-21T02:50:04.137Z,1015.61
2017-04-21T02:50:25.851Z,1015.63
2017-04-21T02:51:33.271Z,1015.53
2017-04-21T02:51:54.906Z,1015.37
2017-04-21T02:52:16.606Z,1015.43
2017-04-21T02:52:43.209Z,1015.52
2017-04-21T02:53:04.871Z,1015.71
2017-04-21T02:53:26.572Z,1015.53
2017-04-21T02:53:48.281Z,1015.58
2017-04-21T02:54:10.069Z,1015.70
2017-04-21T02:54:31.799Z,1015.71
2017-04-21T02:54:58.300Z,1015.56
2017-04-21T02:55:20.002Z,1015.40
2017-04-21T02:56:13.065Z,1015.38
2017-04-21T02:56:39.552Z,1015.63
2017-04-21T02:57:01.267Z,1015.83
2017-04-21T02:58:03.873Z,1015.67
2017-04-21T02:58:25.594Z,1015.58
2017-04-21T02:59:18.629Z,1015.64
2017-04-21T02:59:40.355Z,1015.61
2017-04-21T03:00:42.866Z,1015.66
2017-04-21T03:01:41.239Z,1015.68
2017-04-21T03:02:02.943Z,1015.51
2017-04-21T03:02:29.431Z,1015.67
2017-04-21T03:02:51.205Z,1015.67
2017-04-21T03:03:12.917Z,1015.65
2017-04-21T03:03:39.444Z,1015.64
2017-04-21T03:04:01.281Z,1015.62
2017-04-21T03:04:27.760Z,1015.77
2017-04-21T03:04:49.570Z,1015.69
2017-04-21T03:05:11.281Z,1015.53
2017-04-21T03:05:37.775Z,1015.62
2017-04-21T03:05:59.559Z,1015.66
2017-04-21T03:06:21.274Z,1015.70
2017-04-21T03:06:42.978Z,1015.41
2017-04-21T03:07:04.763Z,1015.56
2017-04-21T03:07:31.243Z,1015.48
2017-04-21T03:07:53.000Z,1015.51
2017-04-21T03:08:46.031Z,1015.69
2017-04-21T03:09:12.528Z,1015.49
2017-04-21T03:09:34.201Z,1015.62
2017-04-21T03:10:00.689Z,1015.52
2017-04-21T03:10:22.488Z,1015.61
2017-04-21T03:10:49.003Z,1015.64
2017-04-21T03:11:10.689Z,1015.63
2017-04-21T03:12:03.764Z,1015.48
2017-04-21T03:13:06.353Z,1015.59
2017-04-21T03:13:28.070Z,1015.53
2017-04-21T03:14:26.648Z,1015.54
2017-04-21T03:14:48.458Z,1015.72
2017-04-21T03:15:10.157Z,1015.62
2017-04-21T03:16:12.671Z,1015.49
2017-04-21T03:16:39.134Z,1015.54
2017-04-21T03:18:22.453Z,1015.59
2017-04-21T03:18:44.255Z,1015.82
2017-04-21T03:19:10.729Z,1015.57
2017-04-21T03:19:32.426Z,1015.49
2017-04-21T03:19:58.901Z,1015.80
2017-04-21T03:20:20.707Z,1015.95
2017-04-21T03:20:42.407Z,1015.74
2017-04-21T03:21:35.443Z,1015.49
2017-04-21T03:22:34.182Z,1015.43
2017-04-21T03:23:00.648Z,1015.53
2017-04-21T03:23:22.373Z,1015.66
2017-04-21T03:23:44.168Z,1015.65
2017-04-21T03:24:05.882Z,1015.56
2017-04-21T03:24:27.596Z,1015.63
2017-04-21T03:24:49.297Z,1015.65
2017-04-21T03:25:11.146Z,1015.53
2017-04-21T03:25:32.847Z,1015.48
2017-04-21T03:25:54.553Z,1015.61
2017-04-21T03:26:16.260Z,1015.51
2017-04-21T03:26:42.730Z,1015.55
2017-04-21T03:27:04.539Z,1015.50
2017-04-21T03:27:26.251Z,1015.51
2017-04-21T03:28:19.273Z,1015.77
2017-04-21T03:29:12.309Z,1015.54
2017-04-21T03:29:34.009Z,1015.54
2017-04-21T03:30:00.505Z,1015.59
2017-04-21T03:30:22.404Z,1015.58
2017-04-21T03:30:49.281Z,1015.43
2017-04-21T03:31:11.069Z,1015.54
2017-04-21T03:31:37.568Z,1015.50
2017-04-21T03:31:59.297Z,1015.64
2017-04-21T03:32:52.362Z,1015.48
2017-04-21T03:33:14.088Z,1015.56
2017-04-21T03:33:35.801Z,1015.50
2017-04-21T03:33:57.605Z,1015.44
2017-04-21T03:34:50.565Z,1015.58
2017-04-21T03:35:43.632Z,1015.32
2017-04-21T03:36:05.339Z,1015.47
2017-04-21T03:36:58.785Z,1015.38
2017-04-21T03:37:51.818Z,1015.60
2017-04-21T03:38:18.287Z,1015.47
2017-04-21T03:38:40.000Z,1015.44
2017-04-21T03:39:06.470Z,1015.32
2017-04-21T03:39:28.265Z,1015.59
2017-04-21T03:39:54.734Z,1015.31
2017-04-21T03:40:16.459Z,1015.53
2017-04-21T03:40:42.939Z,1015.56
2017-04-21T03:41:04.728Z,1015.61
2017-04-21T03:41:26.446Z,1015.45
2017-04-21T03:42:24.952Z,1015.42
2017-04-21T03:42:51.442Z,1015.39
2017-04-21T03:43:13.148Z,1015.34
2017-04-21T03:43:34.938Z,1015.26
2017-04-21T03:44:27.901Z,1015.53
2017-04-21T03:44:49.686Z,1015.39
2017-04-21T03:45:42.671Z,1015.37
2017-04-21T03:46:04.479Z,1015.39
2017-04-21T03:46:57.468Z,1015.40
2017-04-21T03:47:19.249Z,1015.39
2017-04-21T03:48:12.203Z,1015.50
2017-04-21T03:48:34.002Z,1015.33
2017-04-21T03:49:00.376Z,1015.37
2017-04-21T03:49:22.077Z,1015.50
2017-04-21T03:49:43.775Z,1015.33
2017-04-21T03:50:10.382Z,1015.51
2017-04-21T03:50:32.158Z,1015.39
2017-04-21T03:51:30.571Z,1015.43
2017-04-21T03:51:52.364Z,1015.50
2017-04-21T03:52:45.323Z,1015.34
2017-04-21T03:53:07.108Z,1015.64
2017-04-21T03:53:28.826Z,1015.45
2017-04-21T03:53:50.527Z,1015.33
2017-04-21T03:54:12.227Z,1015.40
2017-04-21T03:54:33.998Z,1015.44
2017-04-21T03:54:55.805Z,1015.44
2017-04-21T03:55:17.608Z,1015.51
2017-04-21T03:55:44.104Z,1015.48
2017-04-21T03:56:05.984Z,1015.40
2017-04-21T03:56:27.692Z,1015.57
2017-04-21T03:56:54.175Z,1015.54
2017-04-21T03:57:15.870Z,1015.36
2017-04-21T03:57:37.659Z,1015.38
2017-04-21T03:58:04.175Z,1015.30
2017-04-21T03:58:25.863Z,1015.34
2017-04-21T03:58:47.660Z,1015.37
2017-04-21T03:59:14.139Z,1015.33
2017-04-21T03:59:35.831Z,1015.39
2017-04-21T03:59:57.526Z,1015.47
2017-04-21T04:00:19.327Z,1015.41
2017-04-21T04:00:41.062Z,1015.40
2017-04-21T04:01:02.763Z,1015.46
2017-04-21T04:01:29.256Z,1015.41
2017-04-21T04:01:51.062Z,1015.61
2017-04-21T04:02:12.770Z,1015.32
2017-04-21T04:02:34.476Z,1015.32
2017-04-21T04:02:56.275Z,1015.40
2017-04-21T04:03:49.232Z,1015.43
2017-04-21T04:04:42.277Z,1015.59
2017-04-21T04:05:03.982Z,1015.45
2017-04-21T04:05:30.491Z,1015.40
2017-04-21T04:05:52.295Z,1015.25
2017-04-21T04:06:59.581Z,1015.54
2017-04-21T04:07:21.305Z,1015.39
2017-04-21T04:08:14.255Z,1015.33
2017-04-21T04:08:36.059Z,1015.31
2017-04-21T04:08:57.995Z,1015.45
2017-04-21T04:09:19.856Z,1015.45
2017-04-21T04:10:12.900Z,1015.39
2017-04-21T04:11:05.955Z,1015.31
2017-04-21T04:11:58.916Z,1015.49
2017-04-21T04:12:20.938Z,1015.39
2017-04-21T04:12:42.567Z,1015.46
2017-04-21T04:13:04.286Z,1015.50
2017-04-21T04:13:57.320Z,1015.48
2017-04-21T04:15:04.597Z,1015.66
2017-04-21T04:15:26.301Z,1015.44
2017-04-21T04:16:19.302Z,1015.46
2017-04-21T04:16:41.029Z,1015.61
2017-04-21T04:17:02.743Z,1015.59
2017-04-21T04:17:29.310Z,1015.31
2017-04-21T04:17:51.020Z,1015.45
2017-04-21T04:18:17.527Z,1015.55
2017-04-21T04:18:39.213Z,1015.47
2017-04-21T04:19:05.687Z,1015.55
2017-04-21T04:19:27.392Z,1015.41
2017-04-21T04:19:49.089Z,1015.45
2017-04-21T04:20:42.158Z,1015.52
2017-04-21T04:21:08.673Z,1015.58
2017-04-21T04:21:30.360Z,1015.44
2017-04-21T04:21:52.139Z,1015.62
2017-04-21T04:22:18.629Z,1015.58
2017-04-21T04:22:40.322Z,1015.49
2017-04-21T04:23:02.134Z,1015.24
2017-04-21T04:23:55.092Z,1015.29
2017-04-21T04:24:53.595Z,1015.47
2017-04-21T04:25:56.191Z,1015.55
2017-04-21T04:26:17.916Z,1015.40
2017-04-21T04:27:10.950Z,1015.40
2017-04-21T04:28:03.898Z,1015.44
2017-04-21T04:28:30.508Z,1015.48
2017-04-21T04:28:52.155Z,1015.47
2017-04-21T04:29:45.182Z,1015.48
2017-04-21T04:30:11.661Z,1015.50
2017-04-21T04:30:33.389Z,1015.55
2017-04-21T04:32:12.527Z,1015.45
2017-04-21T04:32:34.370Z,1015.55
2017-04-21T04:32:56.260Z,1015.58
2017-04-21T04:33:18.229Z,1015.43
2017-04-21T04:33:39.983Z,1015.54
2017-04-21T04:34:02.014Z,1015.50
2017-04-21T04:34:24.018Z,1015.40
2017-04-21T04:34:46.077Z,1015.57
2017-04-21T04:35:08.200Z,1015.43
2017-04-21T04:35:30.988Z,1015.45
2017-04-21T04:35:52.686Z,1015.53
2017-04-21T04:36:14.456Z,1015.47
2017-04-21T04:36:36.343Z,1015.53
2017-04-21T04:36:58.126Z,1015.46
2017-04-21T04:37:19.991Z,1015.53
2017-04-21T04:37:41.869Z,1015.63
2017-04-21T04:38:03.636Z,1015.51
2017-04-21T04:39:01.830Z,1015.56
2017-04-21T04:39:23.677Z,1015.65
2017-04-21T04:40:14.863Z,1015.51
2017-04-21T04:40:36.563Z,1015.54
2017-04-21T04:40:58.363Z,1015.55
2017-04-21T04:41:20.588Z,1015.48
2017-04-21T04:41:42.462Z,1015.40
2017-04-21T04:42:04.426Z,1015.56
2017-04-21T04:42:26.350Z,1015.65
2017-04-21T04:42:48.237Z,1015.57
2017-04-21T04:43:10.133Z,1015.35
2017-04-21T04:43:31.874Z,1015.39
2017-04-21T04:43:53.708Z,1015.56
2017-04-21T04:44:15.550Z,1015.69
2017-04-21T04:44:37.339Z,1015.57
2017-04-21T04:44:59.136Z,1015.42
2017-04-21T04:45:21.101Z,1015.46
2017-04-21T04:45:43.247Z,1015.60
2017-04-21T04:46:04.975Z,1015.66
2017-04-21T04:46:26.896Z,1015.47
2017-04-21T04:46:48.953Z,1015.29
2017-04-21T04:47:10.781Z,1015.66
2017-04-21T04:47:32.519Z,1015.57
2017-04-21T04:47:54.369Z,1015.46
2017-04-21T04:48:16.306Z,1015.49
2017-04-21T04:48:38.030Z,1015.46
2017-04-21T04:48:59.884Z,1015.70
2017-04-21T04:49:21.849Z,1015.52
2017-04-21T04:49:43.586Z,1015.49
2017-04-21T04:50:05.436Z,1015.62
2017-04-21T04:50:27.408Z,1015.62
2017-04-21T04:50:49.506Z,1015.57
2017-04-21T04:51:11.405Z,1015.47
2017-04-21T04:51:33.661Z,1015.58
2017-04-21T04:52:41.096Z,1015.73
2017-04-21T04:53:15.380Z,1015.55
2017-04-21T04:53:37.085Z,1015.55
2017-04-21T04:53:58.899Z,1015.55
2017-04-21T04:54:25.484Z,1015.80
2017-04-21T04:54:51.075Z,1015.45
2017-04-21T04:55:13.035Z,1015.57
2017-04-21T04:55:35.174Z,1015.35
2017-04-21T04:55:57.085Z,1015.54
2017-04-21T04:56:19.132Z,1015.45
2017-04-21T04:56:41.104Z,1015.53
2017-04-21T04:57:02.864Z,1015.74
2017-04-21T04:57:56.063Z,1015.37
2017-04-21T04:58:17.806Z,1015.39
2017-04-21T04:58:39.675Z,1015.55
2017-04-21T04:59:01.412Z,1015.43
2017-04-21T04:59:23.190Z,1015.58
2017-04-21T04:59:45.053Z,1015.51
2017-04-21T05:00:06.791Z,1015.73
2017-04-21T05:00:28.547Z,1015.57
2017-04-21T05:00:50.360Z,1015.67
2017-04-21T05:01:12.346Z,1015.62
2017-04-21T05:01:34.100Z,1015.61
2017-04-21T05:01:56.283Z,1015.51
2017-04-21T05:02:18.011Z,1015.70
2017-04-21T05:02:40.093Z,1015.57
2017-04-21T05:03:01.950Z,1015.63
2017-04-21T05:03:23.695Z,1015.65
2017-04-21T05:03:45.736Z,1015.65
2017-04-21T05:04:07.635Z,1015.50
2017-04-21T05:04:29.381Z,1015.59
2017-04-21T05:04:51.597Z,1015.54
2017-04-21T05:05:13.323Z,1015.44
2017-04-21T05:05:35.124Z,1015.51
2017-04-21T05:05:56.876Z,1015.50
2017-04-21T05:06:18.690Z,1015.47
2017-04-21T05:06:45.360Z,1015.56
2017-04-21T05:07:09.831Z,1015.61
2017-04-21T05:07:31.701Z,1015.48
2017-04-21T05:07:53.615Z,1015.50
2017-04-21T05:08:41.812Z,1015.54
2017-04-21T05:09:03.522Z,1015.50
2017-04-21T05:09:25.218Z,1015.33
2017-04-21T05:09:47.009Z,1015.43
2017-04-21T05:10:09.177Z,1015.59
2017-04-21T05:10:30.988Z,1015.52
2017-04-21T05:10:53.589Z,1015.63
2017-04-21T05:11:15.918Z,1015.50
2017-04-21T05:11:37.748Z,1015.63
2017-04-21T05:11:59.548Z,1015.49
2017-04-21T05:12:21.351Z,1015.45
2017-04-21T05:12:43.071Z,1015.41
2017-04-21T05:13:07.322Z,1015.56
2017-04-21T05:13:29.580Z,1015.41
2017-04-21T05:13:51.294Z,1015.58
2017-04-21T05:14:13.165Z,1015.54
2017-04-21T05:14:35.715Z,1015.49
2017-04-21T05:14:57.587Z,1015.50
2017-04-21T05:15:19.952Z,1015.63
2017-04-21T05:15:41.697Z,1015.61
2017-04-21T05:16:03.765Z,1015.72
2017-04-21T05:16:25.518Z,1015.66
2017-04-21T05:16:47.246Z,1015.46
2017-04-21T05:17:09.120Z,1015.56
2017-04-21T05:17:30.976Z,1015.60
2017-04-21T05:17:52.761Z,1015.68
2017-04-21T05:18:14.859Z,1015.41
2017-04-21T05:18:36.572Z,1015.49
2017-04-21T05:18:59.104Z,1015.68
2017-04-21T05:19:21.347Z,1015.49
2017-04-21T05:19:43.444Z,1015.56
2017-04-21T05:20:05.605Z,1015.50
2017-04-21T05:20:27.433Z,1015.65
2017-04-21T05:20:49.580Z,1015.60
2017-04-21T05:21:11.750Z,1015.60
2017-04-21T05:21:33.971Z,1015.55
2017-04-21T05:22:37.768Z,1015.50
2017-04-21T05:22:59.705Z,1015.49
2017-04-21T05:23:21.668Z,1015.52
2017-04-21T05:23:43.590Z,1015.56
2017-04-21T05:24:05.300Z,1015.63
2017-04-21T05:24:27.387Z,1015.40
2017-04-21T05:24:49.620Z,1015.52
2017-04-21T05:25:11.358Z,1015.62
2017-04-21T05:25:33.539Z,1015.74
2017-04-21T05:25:55.400Z,1015.46
2017-04-21T05:26:17.470Z,1015.58
2017-04-21T05:26:39.598Z,1015.67
2017-04-21T05:27:01.655Z,1015.83
2017-04-21T05:27:23.418Z,1015.67
2017-04-21T05:27:47.956Z,1015.70
2017-04-21T05:28:10.058Z,1015.76
2017-04-21T05:28:32.107Z,1015.63
2017-04-21T05:28:54.242Z,1015.60
2017-04-21T05:29:16.379Z,1015.72
2017-04-21T05:29:38.171Z,1015.53